sensor_id;sensor_type;location;lat;lon;timestamp;temperature;humidity
4910;DHT22;2470;49.868;8.660;2023-03-17T00:01:08;8.20;99.90
4910;DHT22;2470;49.868;8.660;2023-03-17T00:03:39;8.20;99.90
4910;DHT22;2470;49.868;8.660;2023-03-17T00:06:10;8.10;99.90
4910;DHT22;2470;49.868;8.660;2023-03-17T00:08:39;8.10;99.90
4910;DHT22;2470;49.868;8.660;2023-03-17T00:11:05;8.10;99.90
4910;DHT22;2470;49.868;8.660;2023-03-17T00:13:34;8.10;99.90
4910;DHT22;2470;49.868;8.660;2023-03-17T00:16:03;8.10;99.90
4910;DHT22;2470;49.868;8.660;2023-03-17T00:18:29;8.10;99.90
4910;DHT22;2470;49.868;8.660;2023-03-17T00:20:56;8.00;99.90
4910;DHT22;2470;49.868;8.660;2023-03-17T00:23:23;8.00;99.90
4910;DHT22;2470;49.868;8.660;2023-03-17T00:25:49;8.10;99.90
4910;DHT22;2470;49.868;8.660;2023-03-17T00:28:22;8.10;99.90
4910;DHT22;2470;49.868;8.660;2023-03-17T00:30:52;8.00;99.90
4910;DHT22;2470;49.868;8.660;2023-03-17T00:33:19;8.00;99.90
4910;DHT22;2470;49.868;8.660;2023-03-17T00:35:46;8.00;99.90
4910;DHT22;2470;49.868;8.660;2023-03-17T00:38:16;8.00;99.90
4910;DHT22;2470;49.868;8.660;2023-03-17T00:40:43;8.00;99.90
4910;DHT22;2470;49.868;8.660;2023-03-17T00:43:10;8.00;99.90
4910;DHT22;2470;49.868;8.660;2023-03-17T00:45:36;8.00;99.90
4910;DHT22;2470;49.868;8.660;2023-03-17T00:48:02;7.90;99.90
4910;DHT22;2470;49.868;8.660;2023-03-17T00:50:28;7.90;99.90
4910;DHT22;2470;49.868;8.660;2023-03-17T00:52:57;7.90;99.90
4910;DHT22;2470;49.868;8.660;2023-03-17T00:55:24;7.90;99.90
4910;DHT22;2470;49.868;8.660;2023-03-17T00:57:50;7.90;99.90
4910;DHT22;2470;49.868;8.660;2023-03-17T01:00:23;7.90;99.90
4910;DHT22;2470;49.868;8.660;2023-03-17T01:02:52;7.90;99.90
4910;DHT22;2470;49.868;8.660;2023-03-17T01:05:18;7.80;99.90
4910;DHT22;2470;49.868;8.660;2023-03-17T01:07:46;7.80;99.90
4910;DHT22;2470;49.868;8.660;2023-03-17T01:10:21;7.80;99.90
4910;DHT22;2470;49.868;8.660;2023-03-17T01:12:48;7.80;99.90
4910;DHT22;2470;49.868;8.660;2023-03-17T01:15:14;7.80;99.90
4910;DHT22;2470;49.868;8.660;2023-03-17T01:17:40;7.70;99.90
4910;DHT22;2470;49.868;8.660;2023-03-17T01:20:10;7.70;99.90
4910;DHT22;2470;49.868;8.660;2023-03-17T01:22:36;7.60;99.90
4910;DHT22;2470;49.868;8.660;2023-03-17T01:25:02;7.70;99.90
4910;DHT22;2470;49.868;8.660;2023-03-17T01:27:33;7.70;99.90
4910;DHT22;2470;49.868;8.660;2023-03-17T01:29:59;7.70;99.90
4910;DHT22;2470;49.868;8.660;2023-03-17T01:32:25;7.70;99.90
4910;DHT22;2470;49.868;8.660;2023-03-17T01:34:51;7.70;99.90
4910;DHT22;2470;49.868;8.660;2023-03-17T01:37:16;7.70;99.90
4910;DHT22;2470;49.868;8.660;2023-03-17T01:39:42;7.70;99.90
4910;DHT22;2470;49.868;8.660;2023-03-17T01:42:07;7.70;99.90
4910;DHT22;2470;49.868;8.660;2023-03-17T01:44:33;7.70;99.90
4910;DHT22;2470;49.868;8.660;2023-03-17T01:46:58;7.70;99.90
4910;DHT22;2470;49.868;8.660;2023-03-17T01:49:32;7.70;99.90
4910;DHT22;2470;49.868;8.660;2023-03-17T01:52:08;7.70;99.90
4910;DHT22;2470;49.868;8.660;2023-03-17T01:54:58;7.70;99.90
4910;DHT22;2470;49.868;8.660;2023-03-17T01:57:41;7.70;99.90
4910;DHT22;2470;49.868;8.660;2023-03-17T02:00:13;7.70;99.90
4910;DHT22;2470;49.868;8.660;2023-03-17T02:02:43;7.60;99.90
4910;DHT22;2470;49.868;8.660;2023-03-17T02:05:12;7.50;99.90
4910;DHT22;2470;49.868;8.660;2023-03-17T02:07:39;7.60;99.90
4910;DHT22;2470;49.868;8.660;2023-03-17T02:10:05;7.60;99.90
4910;DHT22;2470;49.868;8.660;2023-03-17T02:12:33;7.60;99.90
4910;DHT22;2470;49.868;8.660;2023-03-17T02:14:59;7.50;99.90
4910;DHT22;2470;49.868;8.660;2023-03-17T02:17:27;7.50;99.90
4910;DHT22;2470;49.868;8.660;2023-03-17T02:19:52;7.50;99.90
4910;DHT22;2470;49.868;8.660;2023-03-17T02:22:18;7.50;99.90
4910;DHT22;2470;49.868;8.660;2023-03-17T02:24:59;7.50;99.90
4910;DHT22;2470;49.868;8.660;2023-03-17T02:27:40;7.50;99.90
4910;DHT22;2470;49.868;8.660;2023-03-17T02:30:09;7.50;99.90
4910;DHT22;2470;49.868;8.660;2023-03-17T02:32:36;7.50;99.90
4910;DHT22;2470;49.868;8.660;2023-03-17T02:35:02;7.50;99.90
4910;DHT22;2470;49.868;8.660;2023-03-17T02:37:27;7.50;99.90
4910;DHT22;2470;49.868;8.660;2023-03-17T02:39:53;7.50;99.90
4910;DHT22;2470;49.868;8.660;2023-03-17T02:42:19;7.50;99.90
4910;DHT22;2470;49.868;8.660;2023-03-17T02:44:45;7.40;99.90
4910;DHT22;2470;49.868;8.660;2023-03-17T02:47:11;7.40;99.90
4910;DHT22;2470;49.868;8.660;2023-03-17T02:49:38;7.40;99.90
4910;DHT22;2470;49.868;8.660;2023-03-17T02:52:05;7.40;99.90
4910;DHT22;2470;49.868;8.660;2023-03-17T02:54:31;7.40;99.90
4910;DHT22;2470;49.868;8.660;2023-03-17T02:56:57;7.40;99.90
4910;DHT22;2470;49.868;8.660;2023-03-17T02:59:23;7.40;99.90
4910;DHT22;2470;49.868;8.660;2023-03-17T03:01:48;7.40;99.90
4910;DHT22;2470;49.868;8.660;2023-03-17T03:04:15;7.30;99.90
4910;DHT22;2470;49.868;8.660;2023-03-17T03:06:41;7.30;99.90
4910;DHT22;2470;49.868;8.660;2023-03-17T03:09:09;7.20;99.90
4910;DHT22;2470;49.868;8.660;2023-03-17T03:11:36;7.20;99.90
4910;DHT22;2470;49.868;8.660;2023-03-17T03:14:02;7.20;99.90
4910;DHT22;2470;49.868;8.660;2023-03-17T03:16:28;7.30;99.90
4910;DHT22;2470;49.868;8.660;2023-03-17T03:18:53;7.10;99.90
4910;DHT22;2470;49.868;8.660;2023-03-17T03:21:19;7.00;99.90
4910;DHT22;2470;49.868;8.660;2023-03-17T03:23:44;7.00;99.90
4910;DHT22;2470;49.868;8.660;2023-03-17T03:26:10;7.00;99.90
4910;DHT22;2470;49.868;8.660;2023-03-17T03:28:36;7.00;99.90
4910;DHT22;2470;49.868;8.660;2023-03-17T03:31:02;7.00;99.90
4910;DHT22;2470;49.868;8.660;2023-03-17T03:33:28;6.90;99.90
4910;DHT22;2470;49.868;8.660;2023-03-17T03:35:53;6.90;99.90
4910;DHT22;2470;49.868;8.660;2023-03-17T03:38:19;6.90;99.90
4910;DHT22;2470;49.868;8.660;2023-03-17T03:40:45;6.90;99.90
4910;DHT22;2470;49.868;8.660;2023-03-17T03:43:11;6.90;99.90
4910;DHT22;2470;49.868;8.660;2023-03-17T03:45:37;6.90;99.90
4910;DHT22;2470;49.868;8.660;2023-03-17T03:48:03;6.90;99.90
4910;DHT22;2470;49.868;8.660;2023-03-17T03:50:29;6.80;99.90
4910;DHT22;2470;49.868;8.660;2023-03-17T03:52:55;6.90;99.90
4910;DHT22;2470;49.868;8.660;2023-03-17T03:55:20;6.90;99.90
4910;DHT22;2470;49.868;8.660;2023-03-17T03:57:46;6.90;99.90
4910;DHT22;2470;49.868;8.660;2023-03-17T04:00:12;6.90;99.90
4910;DHT22;2470;49.868;8.660;2023-03-17T04:02:39;6.90;99.90
4910;DHT22;2470;49.868;8.660;2023-03-17T04:05:05;6.90;99.90
4910;DHT22;2470;49.868;8.660;2023-03-17T04:07:31;6.80;99.90
4910;DHT22;2470;49.868;8.660;2023-03-17T04:09:57;6.80;99.90
4910;DHT22;2470;49.868;8.660;2023-03-17T04:12:24;6.80;99.90
4910;DHT22;2470;49.868;8.660;2023-03-17T04:14:50;6.80;99.90
4910;DHT22;2470;49.868;8.660;2023-03-17T04:17:15;6.80;99.90
4910;DHT22;2470;49.868;8.660;2023-03-17T04:19:41;6.90;99.90
4910;DHT22;2470;49.868;8.660;2023-03-17T04:22:07;6.80;99.90
4910;DHT22;2470;49.868;8.660;2023-03-17T04:24:33;6.70;99.90
4910;DHT22;2470;49.868;8.660;2023-03-17T04:26:59;6.70;99.90
4910;DHT22;2470;49.868;8.660;2023-03-17T04:29:26;6.70;99.90
4910;DHT22;2470;49.868;8.660;2023-03-17T04:31:51;6.70;99.90
4910;DHT22;2470;49.868;8.660;2023-03-17T04:34:17;6.70;99.90
4910;DHT22;2470;49.868;8.660;2023-03-17T04:36:45;6.70;99.90
4910;DHT22;2470;49.868;8.660;2023-03-17T04:39:12;6.70;99.90
4910;DHT22;2470;49.868;8.660;2023-03-17T04:41:37;6.70;99.90
4910;DHT22;2470;49.868;8.660;2023-03-17T04:44:04;6.60;99.90
4910;DHT22;2470;49.868;8.660;2023-03-17T04:46:30;6.60;99.90
4910;DHT22;2470;49.868;8.660;2023-03-17T04:48:56;6.60;99.90
4910;DHT22;2470;49.868;8.660;2023-03-17T04:51:22;6.50;99.90
4910;DHT22;2470;49.868;8.660;2023-03-17T04:53:48;6.50;99.90
4910;DHT22;2470;49.868;8.660;2023-03-17T04:56:13;6.50;99.90
4910;DHT22;2470;49.868;8.660;2023-03-17T04:58:39;6.40;99.90
4910;DHT22;2470;49.868;8.660;2023-03-17T05:01:05;6.50;99.90
4910;DHT22;2470;49.868;8.660;2023-03-17T05:03:31;6.40;99.90
4910;DHT22;2470;49.868;8.660;2023-03-17T05:05:58;6.40;99.90
4910;DHT22;2470;49.868;8.660;2023-03-17T05:08:24;6.40;99.90
4910;DHT22;2470;49.868;8.660;2023-03-17T05:10:53;6.40;99.90
4910;DHT22;2470;49.868;8.660;2023-03-17T05:13:19;6.40;99.90
4910;DHT22;2470;49.868;8.660;2023-03-17T05:15:49;6.40;99.90
4910;DHT22;2470;49.868;8.660;2023-03-17T05:18:15;6.40;99.90
4910;DHT22;2470;49.868;8.660;2023-03-17T05:20:41;6.30;99.90
4910;DHT22;2470;49.868;8.660;2023-03-17T05:23:07;6.30;99.90
4910;DHT22;2470;49.868;8.660;2023-03-17T05:25:33;6.30;99.90
4910;DHT22;2470;49.868;8.660;2023-03-17T05:27:59;6.30;99.90
4910;DHT22;2470;49.868;8.660;2023-03-17T05:30:25;6.30;99.90
4910;DHT22;2470;49.868;8.660;2023-03-17T05:32:50;6.30;99.90
4910;DHT22;2470;49.868;8.660;2023-03-17T05:35:16;6.40;99.90
4910;DHT22;2470;49.868;8.660;2023-03-17T05:37:43;6.30;99.90
4910;DHT22;2470;49.868;8.660;2023-03-17T05:40:10;6.30;99.90
4910;DHT22;2470;49.868;8.660;2023-03-17T05:42:37;6.30;99.90
4910;DHT22;2470;49.868;8.660;2023-03-17T05:45:03;6.30;99.90
4910;DHT22;2470;49.868;8.660;2023-03-17T05:47:30;6.30;99.90
4910;DHT22;2470;49.868;8.660;2023-03-17T05:50:01;6.30;99.90
4910;DHT22;2470;49.868;8.660;2023-03-17T05:52:28;6.30;99.90
4910;DHT22;2470;49.868;8.660;2023-03-17T05:54:54;6.30;99.90
4910;DHT22;2470;49.868;8.660;2023-03-17T05:57:20;6.30;99.90
4910;DHT22;2470;49.868;8.660;2023-03-17T05:59:46;6.30;99.90
4910;DHT22;2470;49.868;8.660;2023-03-17T06:02:12;6.30;99.90
4910;DHT22;2470;49.868;8.660;2023-03-17T06:04:38;6.20;99.90
4910;DHT22;2470;49.868;8.660;2023-03-17T06:07:04;6.30;99.90
4910;DHT22;2470;49.868;8.660;2023-03-17T06:09:31;6.30;99.90
4910;DHT22;2470;49.868;8.660;2023-03-17T06:11:58;6.30;99.90
4910;DHT22;2470;49.868;8.660;2023-03-17T06:14:23;6.20;99.90
4910;DHT22;2470;49.868;8.660;2023-03-17T06:16:49;6.30;99.90
4910;DHT22;2470;49.868;8.660;2023-03-17T06:19:15;6.30;99.90
4910;DHT22;2470;49.868;8.660;2023-03-17T06:21:41;6.30;99.90
4910;DHT22;2470;49.868;8.660;2023-03-17T06:24:07;6.40;99.90
4910;DHT22;2470;49.868;8.660;2023-03-17T06:26:33;6.50;99.90
4910;DHT22;2470;49.868;8.660;2023-03-17T06:28:58;6.50;99.90
4910;DHT22;2470;49.868;8.660;2023-03-17T06:31:24;6.60;99.90
4910;DHT22;2470;49.868;8.660;2023-03-17T06:33:50;6.70;99.90
4910;DHT22;2470;49.868;8.660;2023-03-17T06:36:16;6.70;99.90
4910;DHT22;2470;49.868;8.660;2023-03-17T06:38:42;6.70;99.90
4910;DHT22;2470;49.868;8.660;2023-03-17T06:41:08;6.80;99.90
4910;DHT22;2470;49.868;8.660;2023-03-17T06:43:34;6.80;99.90
4910;DHT22;2470;49.868;8.660;2023-03-17T06:45:59;6.80;99.90
4910;DHT22;2470;49.868;8.660;2023-03-17T06:48:25;6.90;99.90
4910;DHT22;2470;49.868;8.660;2023-03-17T06:50:51;6.90;99.90
4910;DHT22;2470;49.868;8.660;2023-03-17T06:53:17;7.00;99.90
4910;DHT22;2470;49.868;8.660;2023-03-17T06:55:42;7.00;99.90
4910;DHT22;2470;49.868;8.660;2023-03-17T06:58:08;6.90;99.90
4910;DHT22;2470;49.868;8.660;2023-03-17T07:00:35;7.00;99.90
4910;DHT22;2470;49.868;8.660;2023-03-17T07:03:02;7.00;99.90
4910;DHT22;2470;49.868;8.660;2023-03-17T07:05:29;7.10;99.90
4910;DHT22;2470;49.868;8.660;2023-03-17T07:07:54;7.20;99.90
4910;DHT22;2470;49.868;8.660;2023-03-17T07:10:20;7.30;99.90
4910;DHT22;2470;49.868;8.660;2023-03-17T07:12:47;7.30;99.90
4910;DHT22;2470;49.868;8.660;2023-03-17T07:15:13;7.40;99.90
4910;DHT22;2470;49.868;8.660;2023-03-17T07:17:39;7.40;99.90
4910;DHT22;2470;49.868;8.660;2023-03-17T07:20:05;7.50;99.90
4910;DHT22;2470;49.868;8.660;2023-03-17T07:22:31;7.60;99.90
4910;DHT22;2470;49.868;8.660;2023-03-17T07:24:57;7.70;99.90
4910;DHT22;2470;49.868;8.660;2023-03-17T07:27:23;7.80;99.90
4910;DHT22;2470;49.868;8.660;2023-03-17T07:29:51;7.90;99.90
4910;DHT22;2470;49.868;8.660;2023-03-17T07:32:17;7.90;99.90
4910;DHT22;2470;49.868;8.660;2023-03-17T07:34:42;8.00;99.90
4910;DHT22;2470;49.868;8.660;2023-03-17T07:37:08;8.10;99.90
4910;DHT22;2470;49.868;8.660;2023-03-17T07:39:35;8.10;99.90
4910;DHT22;2470;49.868;8.660;2023-03-17T07:42:00;8.20;99.90
4910;DHT22;2470;49.868;8.660;2023-03-17T07:44:26;8.30;99.90
4910;DHT22;2470;49.868;8.660;2023-03-17T07:46:52;8.30;99.90
4910;DHT22;2470;49.868;8.660;2023-03-17T07:49:18;8.40;99.90
4910;DHT22;2470;49.868;8.660;2023-03-17T07:51:44;8.50;99.90
4910;DHT22;2470;49.868;8.660;2023-03-17T07:54:10;8.60;99.90
4910;DHT22;2470;49.868;8.660;2023-03-17T07:56:37;8.60;99.90
4910;DHT22;2470;49.868;8.660;2023-03-17T07:59:03;8.70;99.90
4910;DHT22;2470;49.868;8.660;2023-03-17T08:01:28;8.80;99.90
4910;DHT22;2470;49.868;8.660;2023-03-17T08:03:55;8.90;99.90
4910;DHT22;2470;49.868;8.660;2023-03-17T08:06:21;9.00;99.90
4910;DHT22;2470;49.868;8.660;2023-03-17T08:08:50;9.10;99.90
4910;DHT22;2470;49.868;8.660;2023-03-17T08:11:15;9.20;99.90
4910;DHT22;2470;49.868;8.660;2023-03-17T08:13:42;9.30;99.90
4910;DHT22;2470;49.868;8.660;2023-03-17T08:16:07;9.40;99.90
4910;DHT22;2470;49.868;8.660;2023-03-17T08:18:33;9.50;99.90
4910;DHT22;2470;49.868;8.660;2023-03-17T08:20:58;9.60;99.90
4910;DHT22;2470;49.868;8.660;2023-03-17T08:23:24;9.70;99.90
4910;DHT22;2470;49.868;8.660;2023-03-17T08:25:54;9.90;99.90
4910;DHT22;2470;49.868;8.660;2023-03-17T08:28:19;10.10;99.90
4910;DHT22;2470;49.868;8.660;2023-03-17T08:30:45;10.30;99.90
4910;DHT22;2470;49.868;8.660;2023-03-17T08:33:13;10.40;99.90
4910;DHT22;2470;49.868;8.660;2023-03-17T08:35:40;10.50;99.90
4910;DHT22;2470;49.868;8.660;2023-03-17T08:38:05;10.60;99.90
4910;DHT22;2470;49.868;8.660;2023-03-17T08:40:32;10.60;99.90
4910;DHT22;2470;49.868;8.660;2023-03-17T08:42:57;10.70;99.80
4910;DHT22;2470;49.868;8.660;2023-03-17T08:45:23;10.60;98.90
4910;DHT22;2470;49.868;8.660;2023-03-17T08:47:49;10.60;98.80
4910;DHT22;2470;49.868;8.660;2023-03-17T08:50:17;10.60;98.70
4910;DHT22;2470;49.868;8.660;2023-03-17T08:52:44;10.60;98.40
4910;DHT22;2470;49.868;8.660;2023-03-17T08:55:12;10.70;98.30
4910;DHT22;2470;49.868;8.660;2023-03-17T08:57:38;10.80;97.80
4910;DHT22;2470;49.868;8.660;2023-03-17T09:00:04;10.70;97.40
4910;DHT22;2470;49.868;8.660;2023-03-17T09:02:36;10.80;97.30
4910;DHT22;2470;49.868;8.660;2023-03-17T09:05:02;10.80;97.40
4910;DHT22;2470;49.868;8.660;2023-03-17T09:07:28;10.80;97.60
4910;DHT22;2470;49.868;8.660;2023-03-17T09:09:53;11.00;97.60
4910;DHT22;2470;49.868;8.660;2023-03-17T09:12:19;11.10;97.70
4910;DHT22;2470;49.868;8.660;2023-03-17T09:14:44;11.30;97.50
4910;DHT22;2470;49.868;8.660;2023-03-17T09:17:11;11.40;97.30
4910;DHT22;2470;49.868;8.660;2023-03-17T09:19:38;11.50;96.60
4910;DHT22;2470;49.868;8.660;2023-03-17T09:22:04;11.70;96.30
4910;DHT22;2470;49.868;8.660;2023-03-17T09:24:30;11.90;96.30
4910;DHT22;2470;49.868;8.660;2023-03-17T09:26:55;12.00;95.60
4910;DHT22;2470;49.868;8.660;2023-03-17T09:29:24;12.20;95.10
4910;DHT22;2470;49.868;8.660;2023-03-17T09:31:50;12.20;94.50
4910;DHT22;2470;49.868;8.660;2023-03-17T09:34:16;12.20;94.70
4910;DHT22;2470;49.868;8.660;2023-03-17T09:36:42;12.30;94.70
4910;DHT22;2470;49.868;8.660;2023-03-17T09:39:08;12.40;94.60
4910;DHT22;2470;49.868;8.660;2023-03-17T09:41:53;12.50;94.70
4910;DHT22;2470;49.868;8.660;2023-03-17T09:47:17;12.70;94.60
4910;DHT22;2470;49.868;8.660;2023-03-17T09:49:49;12.70;94.40
4910;DHT22;2470;49.868;8.660;2023-03-17T09:52:23;12.80;94.30
4910;DHT22;2470;49.868;8.660;2023-03-17T09:54:50;13.00;93.90
4910;DHT22;2470;49.868;8.660;2023-03-17T09:57:28;13.10;93.50
4910;DHT22;2470;49.868;8.660;2023-03-17T10:00:03;13.30;92.70
4910;DHT22;2470;49.868;8.660;2023-03-17T10:02:33;13.40;92.60
4910;DHT22;2470;49.868;8.660;2023-03-17T10:05:15;13.60;93.00
4910;DHT22;2470;49.868;8.660;2023-03-17T10:10:22;13.90;91.90
4910;DHT22;2470;49.868;8.660;2023-03-17T10:13:15;14.00;91.40
4910;DHT22;2470;49.868;8.660;2023-03-17T10:18:45;14.00;91.80
4910;DHT22;2470;49.868;8.660;2023-03-17T10:21:17;14.10;91.90
4910;DHT22;2470;49.868;8.660;2023-03-17T10:23:45;14.20;92.00
4910;DHT22;2470;49.868;8.660;2023-03-17T10:26:31;14.30;91.40
4910;DHT22;2470;49.868;8.660;2023-03-17T10:28:58;14.40;90.70
4910;DHT22;2470;49.868;8.660;2023-03-17T10:31:29;14.50;90.40
4910;DHT22;2470;49.868;8.660;2023-03-17T10:34:10;14.60;90.70
4910;DHT22;2470;49.868;8.660;2023-03-17T10:36:40;14.70;91.00
4910;DHT22;2470;49.868;8.660;2023-03-17T10:39:13;14.80;90.90
4910;DHT22;2470;49.868;8.660;2023-03-17T10:41:45;15.00;90.80
4910;DHT22;2470;49.868;8.660;2023-03-17T10:44:43;14.90;90.30
4910;DHT22;2470;49.868;8.660;2023-03-17T10:47:30;15.00;90.20
4910;DHT22;2470;49.868;8.660;2023-03-17T10:50:43;15.10;90.10
4910;DHT22;2470;49.868;8.660;2023-03-17T10:52:45;15.10;90.20
4910;DHT22;2470;49.868;8.660;2023-03-17T10:55:14;15.10;87.30
4910;DHT22;2470;49.868;8.660;2023-03-17T10:57:50;15.20;87.30
4910;DHT22;2470;49.868;8.660;2023-03-17T11:00:18;15.30;87.00
4910;DHT22;2470;49.868;8.660;2023-03-17T11:02:56;15.50;86.50
4910;DHT22;2470;49.868;8.660;2023-03-17T11:05:27;15.60;85.20
4910;DHT22;2470;49.868;8.660;2023-03-17T11:08:18;15.60;85.20
4910;DHT22;2470;49.868;8.660;2023-03-17T11:10:44;15.50;83.50
4910;DHT22;2470;49.868;8.660;2023-03-17T11:13:15;15.50;82.80
4910;DHT22;2470;49.868;8.660;2023-03-17T11:16:09;15.50;83.00
4910;DHT22;2470;49.868;8.660;2023-03-17T11:18:41;15.50;83.30
4910;DHT22;2470;49.868;8.660;2023-03-17T11:21:21;15.60;83.40
4910;DHT22;2470;49.868;8.660;2023-03-17T11:24:08;15.80;82.90
4910;DHT22;2470;49.868;8.660;2023-03-17T11:26:44;15.90;82.90
4910;DHT22;2470;49.868;8.660;2023-03-17T11:37:42;16.50;80.90
4910;DHT22;2470;49.868;8.660;2023-03-17T11:40:32;16.60;80.50
4910;DHT22;2470;49.868;8.660;2023-03-17T11:43:32;16.60;80.50
4910;DHT22;2470;49.868;8.660;2023-03-17T11:48:59;16.70;79.70
4910;DHT22;2470;49.868;8.660;2023-03-17T12:01:57;17.40;77.90
4910;DHT22;2470;49.868;8.660;2023-03-17T12:04:30;17.60;77.20
4910;DHT22;2470;49.868;8.660;2023-03-17T12:09:44;17.50;72.60
4910;DHT22;2470;49.868;8.660;2023-03-17T12:12:13;17.60;72.30
4910;DHT22;2470;49.868;8.660;2023-03-17T12:14:46;17.60;71.80
4910;DHT22;2470;49.868;8.660;2023-03-17T12:17:18;17.50;72.00
4910;DHT22;2470;49.868;8.660;2023-03-17T12:22:49;17.40;72.00
4910;DHT22;2470;49.868;8.660;2023-03-17T12:27:49;17.40;71.60
4910;DHT22;2470;49.868;8.660;2023-03-17T12:30:26;17.40;70.80
4910;DHT22;2470;49.868;8.660;2023-03-17T12:33:00;17.60;71.10
4910;DHT22;2470;49.868;8.660;2023-03-17T12:35:33;17.70;67.60
4910;DHT22;2470;49.868;8.660;2023-03-17T12:38:14;17.70;68.20
4910;DHT22;2470;49.868;8.660;2023-03-17T12:41:01;17.90;68.10
4910;DHT22;2470;49.868;8.660;2023-03-17T12:43:39;18.00;67.50
4910;DHT22;2470;49.868;8.660;2023-03-17T12:46:39;18.20;66.70
4910;DHT22;2470;49.868;8.660;2023-03-17T12:51:41;18.60;62.30
4910;DHT22;2470;49.868;8.660;2023-03-17T12:54:29;18.70;61.50
4910;DHT22;2470;49.868;8.660;2023-03-17T12:57:44;18.70;60.30
4910;DHT22;2470;49.868;8.660;2023-03-17T12:59:57;18.60;60.80
4910;DHT22;2470;49.868;8.660;2023-03-17T13:02:34;18.60;60.40
4910;DHT22;2470;49.868;8.660;2023-03-17T13:05:06;18.50;60.10
4910;DHT22;2470;49.868;8.660;2023-03-17T13:07:52;18.50;60.60
4910;DHT22;2470;49.868;8.660;2023-03-17T13:10:41;18.60;60.10
4910;DHT22;2470;49.868;8.660;2023-03-17T13:13:33;18.60;60.70
4910;DHT22;2470;49.868;8.660;2023-03-17T13:16:03;18.80;60.00
4910;DHT22;2470;49.868;8.660;2023-03-17T13:23:41;19.00;59.60
4910;DHT22;2470;49.868;8.660;2023-03-17T13:26:10;19.10;59.30
4910;DHT22;2470;49.868;8.660;2023-03-17T13:28:47;19.00;58.20
4910;DHT22;2470;49.868;8.660;2023-03-17T13:31:34;18.80;58.60
4910;DHT22;2470;49.868;8.660;2023-03-17T13:34:15;18.50;58.80
4910;DHT22;2470;49.868;8.660;2023-03-17T13:37:00;18.20;59.90
4910;DHT22;2470;49.868;8.660;2023-03-17T13:42:49;18.00;60.10
4910;DHT22;2470;49.868;8.660;2023-03-17T13:45:37;18.00;59.80
4910;DHT22;2470;49.868;8.660;2023-03-17T13:48:26;18.10;59.40
4910;DHT22;2470;49.868;8.660;2023-03-17T13:53:41;18.50;58.30
4910;DHT22;2470;49.868;8.660;2023-03-17T13:56:15;18.40;59.10
4910;DHT22;2470;49.868;8.660;2023-03-17T14:01:37;18.20;59.60
4910;DHT22;2470;49.868;8.660;2023-03-17T14:04:10;18.10;59.60
4910;DHT22;2470;49.868;8.660;2023-03-17T14:06:37;18.00;60.20
4910;DHT22;2470;49.868;8.660;2023-03-17T14:09:36;17.80;60.40
4910;DHT22;2470;49.868;8.660;2023-03-17T14:12:22;17.80;60.60
4910;DHT22;2470;49.868;8.660;2023-03-17T14:14:56;17.80;59.20
4910;DHT22;2470;49.868;8.660;2023-03-17T14:17:32;17.70;59.50
4910;DHT22;2470;49.868;8.660;2023-03-17T14:22:26;17.50;59.70
4910;DHT22;2470;49.868;8.660;2023-03-17T14:24:59;17.50;60.00
4910;DHT22;2470;49.868;8.660;2023-03-17T14:27:26;17.50;59.60
4910;DHT22;2470;49.868;8.660;2023-03-17T14:29:53;17.50;59.30
4910;DHT22;2470;49.868;8.660;2023-03-17T14:32:20;17.60;59.30
4910;DHT22;2470;49.868;8.660;2023-03-17T14:34:55;17.70;59.00
4910;DHT22;2470;49.868;8.660;2023-03-17T14:37:22;17.70;58.90
4910;DHT22;2470;49.868;8.660;2023-03-17T14:39:53;17.80;59.40
4910;DHT22;2470;49.868;8.660;2023-03-17T14:42:27;17.60;59.00
4910;DHT22;2470;49.868;8.660;2023-03-17T14:45:05;17.50;59.50
4910;DHT22;2470;49.868;8.660;2023-03-17T14:47:38;17.50;59.40
4910;DHT22;2470;49.868;8.660;2023-03-17T14:50:16;17.50;58.90
4910;DHT22;2470;49.868;8.660;2023-03-17T14:52:43;17.40;58.80
4910;DHT22;2470;49.868;8.660;2023-03-17T14:55:12;17.30;58.90
4910;DHT22;2470;49.868;8.660;2023-03-17T14:57:38;17.20;59.40
4910;DHT22;2470;49.868;8.660;2023-03-17T15:00:42;17.10;58.70
4910;DHT22;2470;49.868;8.660;2023-03-17T15:03:18;17.00;58.40
4910;DHT22;2470;49.868;8.660;2023-03-17T15:05:44;17.00;58.60
4910;DHT22;2470;49.868;8.660;2023-03-17T15:08:40;16.90;58.70
4910;DHT22;2470;49.868;8.660;2023-03-17T15:11:13;16.80;58.00
4910;DHT22;2470;49.868;8.660;2023-03-17T15:13:39;16.70;57.90
4910;DHT22;2470;49.868;8.660;2023-03-17T15:16:21;16.60;57.70
4910;DHT22;2470;49.868;8.660;2023-03-17T15:18:53;16.60;58.50
4910;DHT22;2470;49.868;8.660;2023-03-17T15:21:42;16.70;58.10
4910;DHT22;2470;49.868;8.660;2023-03-17T15:24:29;16.60;58.90
4910;DHT22;2470;49.868;8.660;2023-03-17T15:27:04;16.60;58.60
4910;DHT22;2470;49.868;8.660;2023-03-17T15:29:30;16.50;59.00
4910;DHT22;2470;49.868;8.660;2023-03-17T15:32:11;16.50;59.00
4910;DHT22;2470;49.868;8.660;2023-03-17T15:34:37;16.50;59.40
4910;DHT22;2470;49.868;8.660;2023-03-17T15:37:02;16.50;58.70
4910;DHT22;2470;49.868;8.660;2023-03-17T15:39:28;16.50;58.80
4910;DHT22;2470;49.868;8.660;2023-03-17T15:41:54;16.50;59.30
4910;DHT22;2470;49.868;8.660;2023-03-17T15:44:19;16.50;59.10
4910;DHT22;2470;49.868;8.660;2023-03-17T15:46:45;16.50;59.20
4910;DHT22;2470;49.868;8.660;2023-03-17T15:49:11;16.50;58.70
4910;DHT22;2470;49.868;8.660;2023-03-17T15:51:37;16.60;58.40
4910;DHT22;2470;49.868;8.660;2023-03-17T15:54:02;16.50;58.80
4910;DHT22;2470;49.868;8.660;2023-03-17T15:56:28;16.50;58.40
4910;DHT22;2470;49.868;8.660;2023-03-17T15:58:54;16.50;58.30
4910;DHT22;2470;49.868;8.660;2023-03-17T16:01:19;16.40;58.30
4910;DHT22;2470;49.868;8.660;2023-03-17T16:03:46;16.40;58.70
4910;DHT22;2470;49.868;8.660;2023-03-17T16:06:17;16.30;58.20
4910;DHT22;2470;49.868;8.660;2023-03-17T16:08:44;16.30;58.50
4910;DHT22;2470;49.868;8.660;2023-03-17T16:11:30;16.20;58.50
4910;DHT22;2470;49.868;8.660;2023-03-17T16:13:58;16.30;59.00
4910;DHT22;2470;49.868;8.660;2023-03-17T16:16:41;16.20;59.20
4910;DHT22;2470;49.868;8.660;2023-03-17T16:19:17;16.20;59.70
4910;DHT22;2470;49.868;8.660;2023-03-17T16:21:45;16.10;60.00
4910;DHT22;2470;49.868;8.660;2023-03-17T16:24:18;16.10;60.40
4910;DHT22;2470;49.868;8.660;2023-03-17T16:26:45;16.00;60.80
4910;DHT22;2470;49.868;8.660;2023-03-17T16:29:12;15.90;61.40
4910;DHT22;2470;49.868;8.660;2023-03-17T16:31:39;15.80;61.90
4910;DHT22;2470;49.868;8.660;2023-03-17T16:34:17;15.80;62.90
4910;DHT22;2470;49.868;8.660;2023-03-17T16:36:43;15.70;63.70
4910;DHT22;2470;49.868;8.660;2023-03-17T16:39:21;15.60;64.30
4910;DHT22;2470;49.868;8.660;2023-03-17T16:41:47;15.60;64.70
4910;DHT22;2470;49.868;8.660;2023-03-17T16:44:18;15.50;65.10
4910;DHT22;2470;49.868;8.660;2023-03-17T16:46:46;15.50;65.60
4910;DHT22;2470;49.868;8.660;2023-03-17T16:49:14;15.50;66.70
4910;DHT22;2470;49.868;8.660;2023-03-17T16:51:40;15.50;67.30
4910;DHT22;2470;49.868;8.660;2023-03-17T16:54:06;15.40;67.60
4910;DHT22;2470;49.868;8.660;2023-03-17T16:56:32;15.40;68.40
4910;DHT22;2470;49.868;8.660;2023-03-17T16:58:57;15.30;69.20
4910;DHT22;2470;49.868;8.660;2023-03-17T17:01:25;15.30;70.00
4910;DHT22;2470;49.868;8.660;2023-03-17T17:03:52;15.30;70.20
4910;DHT22;2470;49.868;8.660;2023-03-17T17:06:19;15.20;70.50
4910;DHT22;2470;49.868;8.660;2023-03-17T17:08:46;15.10;71.20
4910;DHT22;2470;49.868;8.660;2023-03-17T17:11:13;15.10;71.80
4910;DHT22;2470;49.868;8.660;2023-03-17T17:13:44;15.10;72.10
4910;DHT22;2470;49.868;8.660;2023-03-17T17:16:26;15.00;72.70
4910;DHT22;2470;49.868;8.660;2023-03-17T17:18:53;15.00;73.30
4910;DHT22;2470;49.868;8.660;2023-03-17T17:21:19;14.90;73.50
4910;DHT22;2470;49.868;8.660;2023-03-17T17:23:45;14.90;73.80